sensor_id;sensor_type;location;lat;lon;timestamp;pressure;altitude;pressure_sealevel;temperature;humidity
72116;BME280;59991;52.140;5.428;2023-06-14T00:00:07;101530.69;;;18.61;47.87
72116;BME280;59991;52.140;5.428;2023-06-14T00:00:39;101544.50;;;18.61;47.60
72116;BME280;59991;52.140;5.428;2023-06-14T00:01:14;101538.19;;;18.60;47.97
72116;BME280;59991;52.140;5.428;2023-06-14T00:01:45;101539.38;;;18.59;48.05
72116;BME280;59991;52.140;5.428;2023-06-14T00:02:17;101535.84;;;18.59;48.08
72116;BME280;59991;52.140;5.428;2023-06-14T00:02:49;101537.00;;;18.58;47.52
72116;BME280;59991;52.140;5.428;2023-06-14T00:03:20;101543.72;;;18.57;48.26
72116;BME280;59991;52.140;5.428;2023-06-14T00:03:53;101539.41;;;18.56;47.72
72116;BME280;59991;52.140;5.428;2023-06-14T00:04:25;101540.19;;;18.56;48.51
72116;BME280;59991;52.140;5.428;2023-06-14T00:04:57;101546.06;;;18.58;48.13
72116;BME280;59991;52.140;5.428;2023-06-14T00:05:29;101544.91;;;18.59;48.06
72116;BME280;59991;52.140;5.428;2023-06-14T00:06:03;101550.44;;;18.59;47.61
72116;BME280;59991;52.140;5.428;2023-06-14T00:06:35;101548.44;;;18.60;47.98
72116;BME280;59991;52.140;5.428;2023-06-14T00:07:07;101546.06;;;18.62;48.29
72116;BME280;59991;52.140;5.428;2023-06-14T00:07:45;101540.91;;;18.64;47.85
72116;BME280;59991;52.140;5.428;2023-06-14T00:08:19;101538.16;;;18.64;48.66
72116;BME280;59991;52.140;5.428;2023-06-14T00:08:52;101542.88;;;18.63;48.11
72116;BME280;59991;52.140;5.428;2023-06-14T00:09:25;101544.09;;;18.62;48.11
72116;BME280;59991;52.140;5.428;2023-06-14T00:09:56;101540.53;;;18.62;48.34
72116;BME280;59991;52.140;5.428;2023-06-14T00:10:28;101537.41;;;18.60;48.56
72116;BME280;59991;52.140;5.428;2023-06-14T00:11:02;101536.22;;;18.57;47.94
72116;BME280;59991;52.140;5.428;2023-06-14T00:11:34;101540.97;;;18.57;47.82
72116;BME280;59991;52.140;5.428;2023-06-14T00:12:05;101539.41;;;18.56;47.52
72116;BME280;59991;52.140;5.428;2023-06-14T00:12:38;101549.25;;;18.57;48.47
72116;BME280;59991;52.140;5.428;2023-06-14T00:13:10;101540.53;;;18.58;47.76
72116;BME280;59991;52.140;5.428;2023-06-14T00:13:41;101548.06;;;18.58;48.17
72116;BME280;59991;52.140;5.428;2023-06-14T00:14:14;101538.19;;;18.60;48.36
72116;BME280;59991;52.140;5.428;2023-06-14T00:14:45;101549.66;;;18.59;47.96
72116;BME280;59991;52.140;5.428;2023-06-14T00:15:19;101546.06;;;18.58;48.01
72116;BME280;59991;52.140;5.428;2023-06-14T00:15:50;101542.53;;;18.58;47.59
72116;BME280;59991;52.140;5.428;2023-06-14T00:16:26;101544.13;;;18.59;48.08
72116;BME280;59991;52.140;5.428;2023-06-14T00:16:57;101534.66;;;18.56;48.35
72116;BME280;59991;52.140;5.428;2023-06-14T00:17:30;101544.13;;;18.55;48.37
72116;BME280;59991;52.140;5.428;2023-06-14T00:18:03;101544.53;;;18.54;48.21
72116;BME280;59991;52.140;5.428;2023-06-14T00:18:35;101541.00;;;18.53;48.03
72116;BME280;59991;52.140;5.428;2023-06-14T00:19:06;101550.47;;;18.52;48.29
72116;BME280;59991;52.140;5.428;2023-06-14T00:19:38;101537.47;;;18.53;47.85
72116;BME280;59991;52.140;5.428;2023-06-14T00:20:10;101548.13;;;18.51;48.21
72116;BME280;59991;52.140;5.428;2023-06-14T00:20:41;101537.47;;;18.53;48.11
72116;BME280;59991;52.140;5.428;2023-06-14T00:21:13;101540.22;;;18.53;47.83
72116;BME280;59991;52.140;5.428;2023-06-14T00:21:45;101542.19;;;18.52;48.33
72116;BME280;59991;52.140;5.428;2023-06-14T00:22:17;101540.63;;;18.51;48.14
72116;BME280;59991;52.140;5.428;2023-06-14T00:22:48;101542.66;;;18.47;48.49
72116;BME280;59991;52.140;5.428;2023-06-14T00:23:19;101550.19;;;18.47;47.75
72116;BME280;59991;52.140;5.428;2023-06-14T00:23:51;101549.03;;;18.44;47.77
72116;BME280;59991;52.140;5.428;2023-06-14T00:24:23;101547.06;;;18.45;48.23
72116;BME280;59991;52.140;5.428;2023-06-14T00:24:54;101545.84;;;18.46;48.70
72116;BME280;59991;52.140;5.428;2023-06-14T00:25:27;101550.53;;;18.49;48.37
72116;BME280;59991;52.140;5.428;2023-06-14T00:26:00;101544.59;;;18.50;48.01
72116;BME280;59991;52.140;5.428;2023-06-14T00:26:32;101548.91;;;18.51;47.89
72116;BME280;59991;52.140;5.428;2023-06-14T00:27:03;101545.75;;;18.53;48.17
72116;BME280;59991;52.140;5.428;2023-06-14T00:27:35;101559.59;;;18.49;48.52
72116;BME280;59991;52.140;5.428;2023-06-14T00:28:07;101548.97;;;18.48;47.98
72116;BME280;59991;52.140;5.428;2023-06-14T00:28:38;101550.19;;;18.47;48.07
72116;BME280;59991;52.140;5.428;2023-06-14T00:29:10;101551.72;;;18.48;48.56
72116;BME280;59991;52.140;5.428;2023-06-14T00:29:41;101548.97;;;18.48;47.97
72116;BME280;59991;52.140;5.428;2023-06-14T00:30:13;101550.19;;;18.47;48.16
72116;BME280;59991;52.140;5.428;2023-06-14T00:30:45;101553.75;;;18.44;48.22
72116;BME280;59991;52.140;5.428;2023-06-14T00:31:18;101552.97;;;18.43;48.32
72116;BME280;59991;52.140;5.428;2023-06-14T00:31:49;101555.38;;;18.41;48.21
72116;BME280;59991;52.140;5.428;2023-06-14T00:32:21;101550.63;;;18.42;47.86
72116;BME280;59991;52.140;5.428;2023-06-14T00:32:57;101546.69;;;18.43;48.44
72116;BME280;59991;52.140;5.428;2023-06-14T00:33:29;101551.78;;;18.44;48.04
72116;BME280;59991;52.140;5.428;2023-06-14T00:34:00;101552.97;;;18.43;48.42
72116;BME280;59991;52.140;5.428;2023-06-14T00:34:32;101551.78;;;18.44;48.52
72116;BME280;59991;52.140;5.428;2023-06-14T00:35:03;101546.25;;;18.44;48.62
72116;BME280;59991;52.140;5.428;2023-06-14T00:35:35;101547.06;;;18.45;48.86
72116;BME280;59991;52.140;5.428;2023-06-14T00:36:06;101549.03;;;18.44;48.41
72116;BME280;59991;52.140;5.428;2023-06-14T00:36:37;101552.56;;;18.45;49.02
72116;BME280;59991;52.140;5.428;2023-06-14T00:37:09;101545.06;;;18.45;48.31
72116;BME280;59991;52.140;5.428;2023-06-14T00:37:41;101549.03;;;18.44;48.29
72116;BME280;59991;52.140;5.428;2023-06-14T00:38:12;101556.94;;;18.42;47.82
72116;BME280;59991;52.140;5.428;2023-06-14T00:38:44;101549.88;;;18.38;47.59
72116;BME280;59991;52.140;5.428;2023-06-14T00:39:15;101551.09;;;18.37;47.76
72116;BME280;59991;52.140;5.428;2023-06-14T00:39:47;101549.13;;;18.34;48.09
72116;BME280;59991;52.140;5.428;2023-06-14T00:40:18;101553.50;;;18.31;47.56
72116;BME280;59991;52.140;5.428;2023-06-14T00:40:50;101546.41;;;18.30;47.50
72116;BME280;59991;52.140;5.428;2023-06-14T00:41:22;101553.91;;;18.29;47.83
72116;BME280;59991;52.140;5.428;2023-06-14T00:41:53;101550.75;;;18.31;48.70
72116;BME280;59991;52.140;5.428;2023-06-14T00:42:26;101546.81;;;18.28;48.15
72116;BME280;59991;52.140;5.428;2023-06-14T00:42:57;101546.81;;;18.28;48.05
72116;BME280;59991;52.140;5.428;2023-06-14T00:43:29;101546.41;;;18.30;48.54
72116;BME280;59991;52.140;5.428;2023-06-14T00:44:00;101552.72;;;18.30;48.77
72116;BME280;59991;52.140;5.428;2023-06-14T00:44:32;101543.28;;;18.28;47.99
72116;BME280;59991;52.140;5.428;2023-06-14T00:45:04;101559.84;;;18.28;47.69
72116;BME280;59991;52.140;5.428;2023-06-14T00:45:35;101555.56;;;18.27;48.57
72116;BME280;59991;52.140;5.428;2023-06-14T00:46:07;101546.41;;;18.30;48.52
72116;BME280;59991;52.140;5.428;2023-06-14T00:46:39;101547.19;;;18.30;48.52
72116;BME280;59991;52.140;5.428;2023-06-14T00:47:10;101546.03;;;18.28;48.20
72116;BME280;59991;52.140;5.428;2023-06-14T00:47:43;101547.28;;;18.27;48.60
72116;BME280;59991;52.140;5.428;2023-06-14T00:48:14;101547.28;;;18.27;48.56
72116;BME280;59991;52.140;5.428;2023-06-14T00:48:47;101551.56;;;18.28;48.69
72116;BME280;59991;52.140;5.428;2023-06-14T00:49:19;101554.31;;;18.28;48.46
72116;BME280;59991;52.140;5.428;2023-06-14T00:49:51;101555.13;;;18.28;48.47
72116;BME280;59991;52.140;5.428;2023-06-14T00:50:23;101548.41;;;18.29;48.59
72116;BME280;59991;52.140;5.428;2023-06-14T00:50:55;101547.63;;;18.29;48.50
72116;BME280;59991;52.140;5.428;2023-06-14T00:51:27;101544.50;;;18.27;48.30
72116;BME280;59991;52.140;5.428;2023-06-14T00:51:58;101547.28;;;18.27;47.98
72116;BME280;59991;52.140;5.428;2023-06-14T00:52:31;101550.03;;;18.27;48.15
72116;BME280;59991;52.140;5.428;2023-06-14T00:53:03;101553.13;;;18.29;48.14
72116;BME280;59991;52.140;5.428;2023-06-14T00:53:35;101549.19;;;18.30;48.23
72116;BME280;59991;52.140;5.428;2023-06-14T00:54:08;101547.19;;;18.30;48.11
72116;BME280;59991;52.140;5.428;2023-06-14T00:54:40;101543.72;;;18.26;48.23
72116;BME280;59991;52.140;5.428;2023-06-14T00:55:11;101540.19;;;18.26;48.82
72116;BME280;59991;52.140;5.428;2023-06-14T00:55:43;101557.16;;;18.24;48.78
72116;BME280;59991;52.140;5.428;2023-06-14T00:56:15;101547.31;;;18.23;48.33
72116;BME280;59991;52.140;5.428;2023-06-14T00:56:47;101556.78;;;18.22;48.99
72116;BME280;59991;52.140;5.428;2023-06-14T00:57:19;101557.56;;;18.23;48.73
72116;BME280;59991;52.140;5.428;2023-06-14T00:57:50;101550.09;;;18.20;48.31
72116;BME280;59991;52.140;5.428;2023-06-14T00:58:22;101546.19;;;18.17;48.51
72116;BME280;59991;52.140;5.428;2023-06-14T00:58:55;101552.53;;;18.14;48.77
72116;BME280;59991;52.140;5.428;2023-06-14T00:59:27;101556.44;;;18.17;48.56
72116;BME280;59991;52.140;5.428;2023-06-14T00:59:58;101548.16;;;18.17;48.61
72116;BME280;59991;52.140;5.428;2023-06-14T01:00:30;101556.81;;;18.19;49.17
72116;BME280;59991;52.140;5.428;2023-06-14T01:01:01;101550.50;;;18.18;49.08
72116;BME280;59991;52.140;5.428;2023-06-14T01:01:33;101548.94;;;18.17;49.32
72116;BME280;59991;52.140;5.428;2023-06-14T01:02:05;101551.75;;;18.14;48.87
72116;BME280;59991;52.140;5.428;2023-06-14T01:02:37;101550.19;;;18.13;49.49
72116;BME280;59991;52.140;5.428;2023-06-14T01:03:09;101552.94;;;18.13;49.34
72116;BME280;59991;52.140;5.428;2023-06-14T01:03:45;101550.19;;;18.13;49.07
72116;BME280;59991;52.140;5.428;2023-06-14T01:04:17;101552.16;;;18.12;49.18
72116;BME280;59991;52.140;5.428;2023-06-14T01:04:49;101551.38;;;18.12;49.12
72116;BME280;59991;52.140;5.428;2023-06-14T01:05:22;101549.00;;;18.10;48.34
72116;BME280;59991;52.140;5.428;2023-06-14T01:07:11;101554.59;;;18.07;48.38
72116;BME280;59991;52.140;5.428;2023-06-14T01:09:03;101556.22;;;18.01;48.64
72116;BME280;59991;52.140;5.428;2023-06-14T01:10:03;101559.00;;;18.01;48.56
72116;BME280;59991;52.140;5.428;2023-06-14T01:10:47;101555.84;;;17.99;48.78
72116;BME280;59991;52.140;5.428;2023-06-14T01:11:32;101551.53;;;17.98;48.66
72116;BME280;59991;52.140;5.428;2023-06-14T01:12:13;101553.09;;;17.99;48.52
72116;BME280;59991;52.140;5.428;2023-06-14T01:13:00;101555.06;;;17.98;49.14
72116;BME280;59991;52.140;5.428;2023-06-14T01:13:37;101554.25;;;18.01;49.26
72116;BME280;59991;52.140;5.428;2023-06-14T01:14:10;101553.47;;;18.01;49.28
72116;BME280;59991;52.140;5.428;2023-06-14T01:14:44;101555.84;;;17.99;49.37
72116;BME280;59991;52.140;5.428;2023-06-14T01:15:17;101558.25;;;17.97;49.45
72116;BME280;59991;52.140;5.428;2023-06-14T01:15:50;101546.81;;;17.94;49.00
72116;BME280;59991;52.140;5.428;2023-06-14T01:16:22;101550.00;;;17.93;49.22
72116;BME280;59991;52.140;5.428;2023-06-14T01:16:55;101557.50;;;17.92;49.51
72116;BME280;59991;52.140;5.428;2023-06-14T01:17:29;101555.91;;;17.91;48.95
72116;BME280;59991;52.140;5.428;2023-06-14T01:18:03;101554.34;;;17.90;49.33
72116;BME280;59991;52.140;5.428;2023-06-14T01:18:36;101555.97;;;17.88;49.22
72116;BME280;59991;52.140;5.428;2023-06-14T01:19:10;101552.81;;;17.89;49.69
72116;BME280;59991;52.140;5.428;2023-06-14T01:19:45;101549.28;;;17.89;49.38
72116;BME280;59991;52.140;5.428;2023-06-14T01:20:19;101550.06;;;17.89;49.22
72116;BME280;59991;52.140;5.428;2023-06-14T01:20:51;101550.41;;;17.91;49.28
72116;BME280;59991;52.140;5.428;2023-06-14T01:21:26;101539.38;;;17.91;49.57
72116;BME280;59991;52.140;5.428;2023-06-14T01:22:01;101546.84;;;17.91;49.40
72116;BME280;59991;52.140;5.428;2023-06-14T01:22:32;101549.69;;;17.87;49.14
72116;BME280;59991;52.140;5.428;2023-06-14T01:23:04;101543.78;;;17.85;49.16
72116;BME280;59991;52.140;5.428;2023-06-14T01:23:35;101552.06;;;17.85;49.73
72116;BME280;59991;52.140;5.428;2023-06-14T01:24:09;101548.53;;;17.85;49.54
72116;BME280;59991;52.140;5.428;2023-06-14T01:24:40;101544.97;;;17.84;49.41
72116;BME280;59991;52.140;5.428;2023-06-14T01:25:16;101548.53;;;17.85;49.32
72116;BME280;59991;52.140;5.428;2023-06-14T01:25:48;101547.72;;;17.84;49.20
72116;BME280;59991;52.140;5.428;2023-06-14T01:26:24;101545.75;;;17.85;49.28
72116;BME280;59991;52.140;5.428;2023-06-14T01:26:57;101552.06;;;17.85;49.70
72116;BME280;59991;52.140;5.428;2023-06-14T01:27:30;101551.69;;;17.83;49.44
72116;BME280;59991;52.140;5.428;2023-06-14T01:28:05;101549.34;;;17.82;49.60
72116;BME280;59991;52.140;5.428;2023-06-14T01:28:44;101551.31;;;17.81;48.86
72116;BME280;59991;52.140;5.428;2023-06-14T01:29:19;101555.63;;;17.82;49.63
72116;BME280;59991;52.140;5.428;2023-06-14T01:29:51;101552.09;;;17.82;49.69
72116;BME280;59991;52.140;5.428;2023-06-14T01:30:29;101547.34;;;17.82;49.70
72116;BME280;59991;52.140;5.428;2023-06-14T01:31:02;101550.13;;;17.82;49.66
72116;BME280;59991;52.140;5.428;2023-06-14T01:31:37;101547.34;;;17.82;49.57
72116;BME280;59991;52.140;5.428;2023-06-14T01:32:13;101550.13;;;17.82;49.59
72116;BME280;59991;52.140;5.428;2023-06-14T01:32:45;101550.53;;;17.81;49.21
72116;BME280;59991;52.140;5.428;2023-06-14T01:33:19;101549.75;;;17.80;49.39
72116;BME280;59991;52.140;5.428;2023-06-14T01:33:51;101552.50;;;17.80;49.68
72116;BME280;59991;52.140;5.428;2023-06-14T01:34:23;101542.28;;;17.77;49.82
72116;BME280;59991;52.140;5.428;2023-06-14T01:34:54;101551.75;;;17.76;49.78
72116;BME280;59991;52.140;5.428;2023-06-14T01:35:26;101550.19;;;17.75;49.35
72116;BME280;59991;52.140;5.428;2023-06-14T01:35:58;101543.09;;;17.74;49.42
72116;BME280;59991;52.140;5.428;2023-06-14T01:36:30;101547.41;;;17.75;49.23
72116;BME280;59991;52.140;5.428;2023-06-14T01:37:02;101547.41;;;17.75;49.34
72116;BME280;59991;52.140;5.428;2023-06-14T01:37:34;101542.69;;;17.76;49.35
72116;BME280;59991;52.140;5.428;2023-06-14T01:38:07;101547.41;;;17.75;49.48
72116;BME280;59991;52.140;5.428;2023-06-14T01:38:39;101546.63;;;17.75;49.70
72116;BME280;59991;52.140;5.428;2023-06-14T01:39:14;101548.97;;;17.76;50.25
72116;BME280;59991;52.140;5.428;2023-06-14T01:39:50;101552.94;;;17.75;50.02
72116;BME280;59991;52.140;5.428;2023-06-14T01:40:21;101545.06;;;17.74;49.91
72116;BME280;59991;52.140;5.428;2023-06-14T01:40:56;101546.66;;;17.71;49.85
72116;BME280;59991;52.140;5.428;2023-06-14T01:41:29;101549.41;;;17.71;50.08
72116;BME280;59991;52.140;5.428;2023-06-14T01:42:01;101546.66;;;17.71;50.17
72116;BME280;59991;52.140;5.428;2023-06-14T01:42:35;101549.41;;;17.71;49.94
72116;BME280;59991;52.140;5.428;2023-06-14T01:43:10;101550.63;;;17.70;50.18
72116;BME280;59991;52.140;5.428;2023-06-14T01:43:43;101551.41;;;17.71;49.72
72116;BME280;59991;52.140;5.428;2023-06-14T01:44:16;101556.91;;;17.71;49.80
72116;BME280;59991;52.140;5.428;2023-06-14T01:44:49;101553.41;;;17.70;50.02
72116;BME280;59991;52.140;5.428;2023-06-14T01:45:21;101546.31;;;17.69;50.10
72116;BME280;59991;52.140;5.428;2023-06-14T01:45:53;101554.22;;;17.67;49.98
72116;BME280;59991;52.140;5.428;2023-06-14T01:46:26;101552.25;;;17.68;50.03
72116;BME280;59991;52.140;5.428;2023-06-14T01:46:58;101548.69;;;17.67;50.35
72116;BME280;59991;52.140;5.428;2023-06-14T01:47:31;101552.66;;;17.66;50.49
72116;BME280;59991;52.140;5.428;2023-06-14T01:48:03;101547.13;;;17.66;50.14
72116;BME280;59991;52.140;5.428;2023-06-14T01:48:35;101552.66;;;17.66;50.46
72116;BME280;59991;52.140;5.428;2023-06-14T01:49:07;101547.53;;;17.65;49.81
72116;BME280;59991;52.140;5.428;2023-06-14T01:49:39;101549.50;;;17.64;50.01
72116;BME280;59991;52.140;5.428;2023-06-14T01:50:11;101551.84;;;17.62;50.24
72116;BME280;59991;52.140;5.428;2023-06-14T01:50:43;101550.66;;;17.63;50.06
72116;BME280;59991;52.140;5.428;2023-06-14T01:51:14;101550.28;;;17.61;49.65
72116;BME280;59991;52.140;5.428;2023-06-14T01:51:46;101551.47;;;17.60;49.35
72116;BME280;59991;52.140;5.428;2023-06-14T01:52:17;101548.72;;;17.60;50.24
72116;BME280;59991;52.140;5.428;2023-06-14T01:52:50;101544.00;;;17.60;50.03
72116;BME280;59991;52.140;5.428;2023-06-14T01:53:22;101545.97;;;17.60;50.40
72116;BME280;59991;52.140;5.428;2023-06-14T01:53:53;101552.25;;;17.60;50.41
72116;BME280;59991;52.140;5.428;2023-06-14T01:54:25;101553.03;;;17.61;49.98
72116;BME280;59991;52.140;5.428;2023-06-14T01:54:57;101549.91;;;17.59;49.89
72116;BME280;59991;52.140;5.428;2023-06-14T01:55:29;101552.28;;;17.57;49.93
72116;BME280;59991;52.140;5.428;2023-06-14T01:56:00;101555.84;;;17.57;49.92
72116;BME280;59991;52.140;5.428;2023-06-14T01:56:32;101553.06;;;17.57;50.07
72116;BME280;59991;52.140;5.428;2023-06-14T01:57:04;101545.59;;;17.58;49.86
72116;BME280;59991;52.140;5.428;2023-06-14T01:57:35;101544.81;;;17.57;50.36
72116;BME280;59991;52.140;5.428;2023-06-14T01:58:07;101549.53;;;17.57;50.19
72116;BME280;59991;52.140;5.428;2023-06-14T01:58:38;101546.78;;;17.57;49.90
72116;BME280;59991;52.140;5.428;2023-06-14T01:59:10;101542.06;;;17.54;50.40
72116;BME280;59991;52.140;5.428;2023-06-14T01:59:42;101550.75;;;17.52;50.17
72116;BME280;59991;52.140;5.428;2023-06-14T02:00:14;101548.44;;;17.51;50.01
72116;BME280;59991;52.140;5.428;2023-06-14T02:00:47;101546.06;;;17.49;49.91
72116;BME280;59991;52.140;5.428;2023-06-14T02:01:19;101551.22;;;17.47;50.53
72116;BME280;59991;52.140;5.428;2023-06-14T02:01:52;101551.59;;;17.46;50.61
72116;BME280;59991;52.140;5.428;2023-06-14T02:02:24;101551.59;;;17.46;50.49
72116;BME280;59991;52.140;5.428;2023-06-14T02:02:55;101539.00;;;17.45;50.34
72116;BME280;59991;52.140;5.428;2023-06-14T02:03:27;101546.91;;;17.43;49.97
72116;BME280;59991;52.140;5.428;2023-06-14T02:03:59;101548.09;;;17.42;50.65
72116;BME280;59991;52.140;5.428;2023-06-14T02:04:30;101547.72;;;17.40;50.00
72116;BME280;59991;52.140;5.428;2023-06-14T02:05:02;101553.22;;;17.40;50.46
72116;BME280;59991;52.140;5.428;2023-06-14T02:05:33;101549.69;;;17.39;50.88
72116;BME280;59991;52.140;5.428;2023-06-14T02:06:05;101546.94;;;17.39;50.48
72116;BME280;59991;52.140;5.428;2023-06-14T02:06:37;101551.25;;;17.40;50.90
72116;BME280;59991;52.140;5.428;2023-06-14T02:07:09;101546.53;;;17.41;50.93
72116;BME280;59991;52.140;5.428;2023-06-14T02:07:41;101547.31;;;17.41;51.26
72116;BME280;59991;52.140;5.428;2023-06-14T02:08:12;101553.22;;;17.40;50.92
72116;BME280;59991;52.140;5.428;2023-06-14T02:08:43;101547.72;;;17.40;50.55
72116;BME280;59991;52.140;5.428;2023-06-14T02:09:15;101544.97;;;17.40;51.37
72116;BME280;59991;52.140;5.428;2023-06-14T02:09:46;101546.16;;;17.39;50.97
72116;BME280;59991;52.140;5.428;2023-06-14T02:10:18;101552.81;;;17.41;51.09
72116;BME280;59991;52.140;5.428;2023-06-14T02:10:49;101548.50;;;17.40;50.81
72116;BME280;59991;52.140;5.428;2023-06-14T02:11:21;101548.50;;;17.40;50.93
72116;BME280;59991;52.140;5.428;2023-06-14T02:11:52;101548.50;;;17.40;50.65
72116;BME280;59991;52.140;5.428;2023-06-14T02:12:24;101549.69;;;17.39;50.84
72116;BME280;59991;52.140;5.428;2023-06-14T02:12:55;101550.09;;;17.38;50.92
72116;BME280;59991;52.140;5.428;2023-06-14T02:13:26;101550.09;;;17.38;50.50
72116;BME280;59991;52.140;5.428;2023-06-14T02:13:58;101550.50;;;17.33;50.68
72116;BME280;59991;52.140;5.428;2023-06-14T02:14:31;101546.63;;;17.30;50.72
72116;BME280;59991;52.140;5.428;2023-06-14T02:15:03;101548.59;;;17.30;50.58
72116;BME280;59991;52.140;5.428;2023-06-14T02:15:35;101552.53;;;17.29;51.20
72116;BME280;59991;52.140;5.428;2023-06-14T02:16:07;101548.59;;;17.30;50.98
72116;BME280;59991;52.140;5.428;2023-06-14T02:16:38;101548.59;;;17.30;50.96
72116;BME280;59991;52.140;5.428;2023-06-14T02:17:10;101547.03;;;17.29;51.28
72116;BME280;59991;52.140;5.428;2023-06-14T02:17:44;101554.50;;;17.28;50.91
72116;BME280;59991;52.140;5.428;2023-06-14T02:18:16;101549.41;;;17.26;51.04
72116;BME280;59991;52.140;5.428;2023-06-14T02:18:48;101552.97;;;17.23;51.21
72116;BME280;59991;52.140;5.428;2023-06-14T02:19:20;101548.25;;;17.20;51.35
72116;BME280;59991;52.140;5.428;2023-06-14T02:19:51;101554.16;;;17.19;51.06
72116;BME280;59991;52.140;5.428;2023-06-14T02:20:23;101546.69;;;17.19;51.14
72116;BME280;59991;52.140;5.428;2023-06-14T02:20:55;101549.44;;;17.19;51.10
72116;BME280;59991;52.140;5.428;2023-06-14T02:21:26;101550.63;;;17.18;51.77
72116;BME280;59991;52.140;5.428;2023-06-14T02:21:57;101552.19;;;17.19;51.13
72116;BME280;59991;52.140;5.428;2023-06-14T02:22:29;101542.00;;;17.16;51.50
72116;BME280;59991;52.140;5.428;2023-06-14T02:23:00;101550.25;;;17.16;51.49
72116;BME280;59991;52.140;5.428;2023-06-14T02:23:32;101543.16;;;17.15;51.33
72116;BME280;59991;52.140;5.428;2023-06-14T02:24:06;101549.06;;;17.17;51.87
72116;BME280;59991;52.140;5.428;2023-06-14T02:24:38;101548.28;;;17.17;51.86
72116;BME280;59991;52.140;5.428;2023-06-14T02:25:09;101555.75;;;17.16;51.27
72116;BME280;59991;52.140;5.428;2023-06-14T02:25:41;101547.13;;;17.14;51.71
72116;BME280;59991;52.140;5.428;2023-06-14T02:26:12;101552.63;;;17.14;51.51
72116;BME280;59991;52.140;5.428;2023-06-14T02:26:44;101551.06;;;17.13;51.74
72116;BME280;59991;52.140;5.428;2023-06-14T02:27:15;101551.88;;;17.10;51.57
72116;BME280;59991;52.140;5.428;2023-06-14T02:27:47;101542.84;;;17.10;51.38
72116;BME280;59991;52.140;5.428;2023-06-14T02:28:18;101546.00;;;17.08;51.65
72116;BME280;59991;52.140;5.428;2023-06-14T02:28:50;101553.47;;;17.08;51.82
72116;BME280;59991;52.140;5.428;2023-06-14T02:29:21;101547.19;;;17.07;51.94
72116;BME280;59991;52.140;5.428;2023-06-14T02:29:52;101550.34;;;17.06;51.68
72116;BME280;59991;52.140;5.428;2023-06-14T02:30:24;101551.91;;;17.07;51.88
72116;BME280;59991;52.140;5.428;2023-06-14T02:30:55;101552.31;;;17.05;51.73
72116;BME280;59991;52.140;5.428;2023-06-14T02:31:27;101553.50;;;17.04;51.75
72116;BME280;59991;52.140;5.428;2023-06-14T02:31:59;101546.41;;;17.03;51.93
72116;BME280;59991;52.140;5.428;2023-06-14T02:32:30;101544.84;;;17.02;52.30
72116;BME280;59991;52.140;5.428;2023-06-14T02:33:03;101549.56;;;17.02;52.08
72116;BME280;59991;52.140;5.428;2023-06-14T02:33:35;101548.00;;;17.01;52.20
72116;BME280;59991;52.140;5.428;2023-06-14T02:34:07;101557.47;;;17.00;52.19
72116;BME280;59991;52.140;5.428;2023-06-14T02:34:41;101553.91;;;16.99;52.08
72116;BME280;59991;52.140;5.428;2023-06-14T02:35:13;101549.59;;;16.98;52.34
72116;BME280;59991;52.140;5.428;2023-06-14T02:35:44;101557.47;;;16.96;52.14
72116;BME280;59991;52.140;5.428;2023-06-14T02:36:17;101552.38;;;16.95;51.98
72116;BME280;59991;52.140;5.428;2023-06-14T02:36:48;101549.59;;;16.95;52.32
72116;BME280;59991;52.140;5.428;2023-06-14T02:37:21;101550.03;;;16.93;52.09
72116;BME280;59991;52.140;5.428;2023-06-14T02:37:53;101545.72;;;16.92;52.29
72116;BME280;59991;52.140;5.428;2023-06-14T02:38:24;101546.91;;;16.91;52.27
72116;BME280;59991;52.140;5.428;2023-06-14T02:38:56;101548.09;;;16.90;51.84
72116;BME280;59991;52.140;5.428;2023-06-14T02:39:31;101550.47;;;16.88;52.39
72116;BME280;59991;52.140;5.428;2023-06-14T02:40:03;101547.31;;;16.86;52.48
72116;BME280;59991;52.140;5.428;2023-06-14T02:40:34;101555.59;;;16.86;52.49
72116;BME280;59991;52.140;5.428;2023-06-14T02:41:06;101545.38;;;16.83;51.86
72116;BME280;59991;52.140;5.428;2023-06-14T02:41:38;101546.56;;;16.82;52.25
72116;BME280;59991;52.140;5.428;2023-06-14T02:42:09;101550.50;;;16.81;52.33
72116;BME280;59991;52.140;5.428;2023-06-14T02:42:41;101554.44;;;16.80;52.54
72116;BME280;59991;52.140;5.428;2023-06-14T02:43:13;101547.34;;;16.79;52.73
72116;BME280;59991;52.140;5.428;2023-06-14T02:43:44;101548.91;;;16.80;52.75
72116;BME280;59991;52.140;5.428;2023-06-14T02:44:18;101555.63;;;16.79;52.81
72116;BME280;59991;52.140;5.428;2023-06-14T02:44:50;101556.00;;;16.77;52.51
72116;BME280;59991;52.140;5.428;2023-06-14T02:45:22;101562.31;;;16.78;52.53
72116;BME280;59991;52.140;5.428;2023-06-14T02:45:54;101554.44;;;16.76;52.47
72116;BME280;59991;52.140;5.428;2023-06-14T02:46:25;101556.81;;;16.74;52.40
72116;BME280;59991;52.140;5.428;2023-06-14T02:46:57;101552.91;;;16.72;52.84
72116;BME280;59991;52.140;5.428;2023-06-14T02:47:29;101558.44;;;16.72;52.82
72116;BME280;59991;52.140;5.428;2023-06-14T02:48:01;101559.22;;;16.72;52.81
72116;BME280;59991;52.140;5.428;2023-06-14T02:48:33;101551.34;;;16.71;53.15
72116;BME280;59991;52.140;5.428;2023-06-14T02:49:04;101559.59;;;16.71;53.13
72116;BME280;59991;52.140;5.428;2023-06-14T02:49:36;101556.84;;;16.71;53.23
72116;BME280;59991;52.140;5.428;2023-06-14T02:50:08;101553.72;;;16.69;53.15
72116;BME280;59991;52.140;5.428;2023-06-14T02:50:39;101559.22;;;16.69;53.32
72116;BME280;59991;52.140;5.428;2023-06-14T02:51:11;101552.94;;;16.68;52.98
72116;BME280;59991;52.140;5.428;2023-06-14T02:51:43;101556.88;;;16.67;53.24
72116;BME280;59991;52.140;5.428;2023-06-14T02:52:16;101558.84;;;16.67;53.53